Time;durP1;ratioP1;P1;durP2;ratioP2;P2;SDS_P1;SDS_P2;PMS_P1;PMS_P2;Temp;Humidity;BMP_temperature;BMP_pressure;BME280_temperature;BME280_humidity;BME280_pressure;Samples;Min_cycle;Max_cycle;Signal;HPM_P1;HPM_P2
2022/06/08 00:00:40;;;;;;;26.63;19.70;;;16.30;99.90;;;;;;5064515;28;20722;-66
2022/06/08 00:03:34;;;;;;;24.13;17.23;;;16.30;99.90;;;;;;5070664;28;20345;-65
2022/06/08 00:06:21;;;;;;;28.40;18.70;;;16.20;99.90;;;;;;5066185;28;20299;-65
2022/06/08 00:09:08;;;;;;;23.40;17.63;;;16.20;99.90;;;;;;5065572;28;20276;-65
2022/06/08 00:11:57;;;;;;;24.70;18.40;;;16.20;99.90;;;;;;5065541;28;20233;-65
2022/06/08 00:14:44;;;;;;;25.57;18.33;;;16.20;99.90;;;;;;5064755;28;20285;-65
2022/06/08 00:17:31;;;;;;;26.10;19.20;;;16.20;99.90;;;;;;5082585;28;20282;-65
2022/06/08 00:20:18;;;;;;;26.90;19.47;;;16.10;99.90;;;;;;5090776;28;20202;-65
2022/06/08 00:23:06;;;;;;;28.87;19.33;;;16.00;99.90;;;;;;5085843;28;20657;-65
2022/06/08 00:25:53;;;;;;;25.93;19.70;;;16.00;99.90;;;;;;5086689;28;20281;-65
2022/06/08 00:28:42;;;;;;;28.70;19.37;;;16.00;99.90;;;;;;5067037;28;20213;-65
2022/06/08 00:31:29;;;;;;;28.67;20.87;;;16.00;99.90;;;;;;5085956;28;20547;-66
2022/06/08 00:34:16;;;;;;;32.73;22.10;;;16.10;99.90;;;;;;5088382;28;20198;-66
2022/06/08 00:37:03;;;;;;;29.43;20.40;;;16.10;99.90;;;;;;5082715;28;20188;-66
2022/06/08 00:39:50;;;;;;;28.37;20.30;;;16.00;99.90;;;;;;5083815;28;20200;-66
2022/06/08 00:42:37;;;;;;;24.43;18.83;;;16.10;99.90;;;;;;5085129;28;20605;-66
2022/06/08 00:45:26;;;;;;;25.07;18.20;;;16.10;99.90;;;;;;5086921;28;20916;-66
2022/06/08 00:48:13;;;;;;;27.13;18.37;;;15.90;99.90;;;;;;5083692;28;20310;-66
2022/06/08 00:51:00;;;;;;;24.87;18.10;;;16.00;99.90;;;;;;5088552;28;20229;-65
2022/06/08 00:53:51;;;;;;;25.10;18.07;;;16.00;99.90;;;;;;5085020;28;20316;-66
2022/06/08 00:56:39;;;;;;;25.80;17.87;;;15.90;99.90;;;;;;5088980;28;20330;-65
2022/06/08 00:59:26;;;;;;;25.33;17.07;;;15.80;99.90;;;;;;5087968;28;20280;-66
2022/06/08 01:02:15;;;;;;;29.73;18.07;;;15.80;99.90;;;;;;5086704;28;20249;-66
2022/06/08 01:05:24;;;;;;;21.73;16.37;;;15.80;99.90;;;;;;5090227;28;21073;-66
2022/06/08 01:08:20;;;;;;;23.23;17.27;;;15.70;99.90;;;;;;5088251;28;20225;-66
2022/06/08 01:11:10;;;;;;;28.30;17.87;;;15.70;99.90;;;;;;5086939;28;20201;-66
2022/06/08 01:13:59;;;;;;;20.63;15.27;;;15.70;99.90;;;;;;5089598;28;20222;-65
2022/06/08 01:16:48;;;;;;;22.17;16.53;;;15.70;99.90;;;;;;5090280;28;21777;-66
2022/06/08 01:19:37;;;;;;;27.80;18.57;;;15.60;99.90;;;;;;5087044;28;20341;-66
2022/06/08 01:22:26;;;;;;;26.03;17.90;;;15.60;99.90;;;;;;5084340;28;20277;-66
2022/06/08 01:25:15;;;;;;;25.83;17.90;;;15.60;99.90;;;;;;5088008;28;20610;-66
2022/06/08 01:28:09;;;;;;;32.57;19.20;;;15.50;99.90;;;;;;5089280;28;20201;-66
2022/06/08 01:30:58;;;;;;;26.17;18.73;;;15.60;99.90;;;;;;5088135;28;20290;-65
2022/06/08 01:33:50;;;;;;;28.20;20.10;;;15.60;99.90;;;;;;5088414;28;20892;-66
2022/06/08 01:37:03;;;;;;;29.37;19.37;;;15.50;99.90;;;;;;5088220;28;20208;-65
2022/06/08 01:40:14;;;;;;;32.77;20.03;;;15.50;99.90;;;;;;5084061;28;20291;-65
2022/06/08 01:43:11;;;;;;;32.77;22.47;;;15.50;99.90;;;;;;5093253;28;20232;-66
2022/06/08 01:46:08;;;;;;;31.17;21.50;;;15.40;99.90;;;;;;5087959;28;20195;-65
2022/06/08 01:49:03;;;;;;;35.57;22.97;;;15.50;99.90;;;;;;5090574;28;20215;-66
2022/06/08 01:51:57;;;;;;;34.47;24.03;;;15.50;99.90;;;;;;5091127;28;20203;-66
2022/06/08 01:54:58;;;;;;;38.70;24.40;;;15.50;99.90;;;;;;5088235;28;20212;-66
2022/06/08 01:57:51;;;;;;;37.50;24.57;;;15.50;99.90;;;;;;5086973;28;20193;-66
2022/06/08 02:00:39;;;;;;;38.27;25.47;;;15.50;99.90;;;;;;5089770;28;20592;-66
2022/06/08 02:03:29;;;;;;;43.33;27.07;;;15.50;99.90;;;;;;5087259;28;20653;-66
2022/06/08 02:06:19;;;;;;;43.13;28.43;;;15.60;99.90;;;;;;5087284;28;20320;-66
2022/06/08 02:09:10;;;;;;;39.87;26.20;;;15.50;99.90;;;;;;5091260;28;20212;-65
2022/06/08 02:12:00;;;;;;;44.13;26.43;;;15.50;99.90;;;;;;5091178;28;20206;-66
2022/06/08 02:14:48;;;;;;;42.20;26.63;;;15.40;99.90;;;;;;5088490;28;20195;-66
2022/06/08 02:17:38;;;;;;;39.87;26.30;;;15.40;99.90;;;;;;5091495;28;20237;-66
2022/06/08 02:20:28;;;;;;;39.43;25.30;;;15.40;99.90;;;;;;5087034;28;20200;-65
2022/06/08 02:23:18;;;;;;;38.50;24.77;;;15.50;99.90;;;;;;5085963;28;20196;-66
2022/06/08 02:26:08;;;;;;;36.13;25.47;;;15.40;99.90;;;;;;5092171;28;20779;-66
2022/06/08 02:28:58;;;;;;;36.63;24.57;;;15.40;99.90;;;;;;5091929;28;20201;-66
2022/06/08 02:31:48;;;;;;;34.87;22.80;;;15.40;99.90;;;;;;5088682;28;20196;-66
2022/06/08 02:34:36;;;;;;;33.33;22.47;;;15.40;99.90;;;;;;5085911;28;20545;-66
2022/06/08 02:37:25;;;;;;;35.53;23.03;;;15.40;99.90;;;;;;5089365;28;20307;-66
2022/06/08 02:40:13;;;;;;;42.03;24.40;;;15.40;99.90;;;;;;5085914;28;20282;-67
2022/06/08 02:43:02;;;;;;;37.60;23.80;;;15.40;99.90;;;;;;5091465;28;20199;-66
2022/06/08 02:45:55;;;;;;;41.27;23.70;;;15.30;99.90;;;;;;5087061;28;20696;-66
2022/06/08 02:48:42;;;;;;;34.03;22.47;;;15.30;99.90;;;;;;5087160;28;20586;-66
2022/06/08 02:51:30;;;;;;;32.80;21.70;;;15.30;99.90;;;;;;5085916;28;20275;-67
2022/06/08 02:54:19;;;;;;;31.57;20.50;;;15.30;99.90;;;;;;5084796;28;20223;-67
2022/06/08 02:57:10;;;;;;;32.53;20.53;;;15.30;99.90;;;;;;5087590;28;20193;-66
2022/06/08 03:00:01;;;;;;;30.93;20.33;;;15.30;99.90;;;;;;5089586;28;20237;-66
2022/06/08 03:02:53;;;;;;;32.87;19.30;;;15.30;99.90;;;;;;5086167;28;20204;-66
2022/06/08 03:05:42;;;;;;;33.73;19.93;;;15.30;99.90;;;;;;5084639;28;20211;-66
2022/06/08 03:08:32;;;;;;;36.27;22.33;;;15.30;99.90;;;;;;5087073;28;20297;-67
2022/06/08 03:11:19;;;;;;;36.57;22.07;;;15.30;99.90;;;;;;5086537;28;20605;-66
2022/06/08 03:14:08;;;;;;;39.17;21.57;;;15.30;99.90;;;;;;5087044;28;20298;-66
2022/06/08 03:16:57;;;;;;;35.17;22.00;;;15.30;99.90;;;;;;5086983;28;20196;-66
2022/06/08 03:19:45;;;;;;;30.70;20.80;;;15.20;99.90;;;;;;5086516;28;20212;-66
2022/06/08 03:22:32;;;;;;;27.50;19.43;;;15.20;99.90;;;;;;5082525;28;20345;-66
2022/06/08 03:25:20;;;;;;;27.67;18.63;;;15.20;99.90;;;;;;5087225;28;20196;-66
2022/06/08 03:28:07;;;;;;;25.50;18.30;;;15.20;99.90;;;;;;5088022;28;20226;-66
2022/06/08 03:30:54;;;;;;;30.20;19.60;;;15.20;99.90;;;;;;5086250;28;20276;-66
2022/06/08 03:33:41;;;;;;;27.07;17.30;;;15.20;99.90;;;;;;5088628;28;20218;-66
2022/06/08 03:36:30;;;;;;;27.37;19.07;;;15.20;99.90;;;;;;5088530;28;20284;-66
2022/06/08 03:39:17;;;;;;;31.27;19.43;;;15.30;99.90;;;;;;5087904;28;20365;-66
2022/06/08 03:42:05;;;;;;;27.43;19.03;;;15.30;99.90;;;;;;5088470;28;21045;-67
2022/06/08 03:44:52;;;;;;;32.07;20.70;;;15.40;99.90;;;;;;5084485;28;20193;-66
2022/06/08 03:47:42;;;;;;;27.83;19.30;;;15.40;99.90;;;;;;5086226;28;20196;-65
2022/06/08 03:50:29;;;;;;;27.37;18.10;;;15.40;99.90;;;;;;5084511;28;20200;-66
2022/06/08 03:53:19;;;;;;;25.53;18.10;;;15.30;99.90;;;;;;5086267;28;20803;-66
2022/06/08 03:56:07;;;;;;;25.63;17.33;;;15.30;99.90;;;;;;5086474;28;20237;-66
2022/06/08 03:58:54;;;;;;;21.30;16.27;;;15.30;99.90;;;;;;5085106;28;21013;-66
2022/06/08 04:01:41;;;;;;;18.50;15.27;;;15.30;99.90;;;;;;5086637;28;20208;-66
2022/06/08 04:04:28;;;;;;;21.03;15.63;;;15.30;99.90;;;;;;5084729;28;20669;-67
2022/06/08 04:07:15;;;;;;;23.13;16.47;;;15.30;99.90;;;;;;5083813;28;20205;-67
2022/06/08 04:10:05;;;;;;;21.57;15.83;;;15.30;99.90;;;;;;5090136;28;20214;-66
2022/06/08 04:12:53;;;;;;;26.13;16.10;;;15.30;99.90;;;;;;5088263;28;20284;-66
2022/06/08 04:15:45;;;;;;;23.43;16.60;;;15.30;99.90;;;;;;5084901;28;20204;-66
2022/06/08 04:18:33;;;;;;;24.33;16.60;;;15.20;99.90;;;;;;5084228;28;20203;-66
2022/06/08 04:21:20;;;;;;;23.13;15.77;;;15.40;99.90;;;;;;5086280;28;20192;-66
2022/06/08 04:24:08;;;;;;;19.67;13.67;;;15.30;99.90;;;;;;5089320;28;20209;-66
2022/06/08 04:26:56;;;;;;;21.63;14.27;;;15.30;99.90;;;;;;5083712;28;20594;-66
2022/06/08 04:29:44;;;;;;;22.47;16.37;;;15.40;99.90;;;;;;5085081;28;20283;-67
2022/06/08 04:32:31;;;;;;;24.27;15.43;;;15.50;99.90;;;;;;5084883;28;20203;-67
2022/06/08 04:35:18;;;;;;;19.53;14.13;;;15.40;99.90;;;;;;5083428;28;20224;-67
2022/06/08 04:38:05;;;;;;;18.77;14.17;;;15.40;99.90;;;;;;5089067;28;20692;-66
2022/06/08 04:40:53;;;;;;;22.17;14.73;;;15.40;99.90;;;;;;5087159;28;20204;-67
2022/06/08 04:43:41;;;;;;;21.47;15.93;;;15.40;99.90;;;;;;5084782;28;20200;-67
2022/06/08 04:46:28;;;;;;;23.27;16.17;;;15.50;99.90;;;;;;5083991;28;20212;-66
2022/06/08 04:49:16;;;;;;;22.73;15.50;;;15.50;99.90;;;;;;5083246;28;20206;-67
2022/06/08 04:52:04;;;;;;;19.20;14.00;;;15.40;99.90;;;;;;5086395;28;20254;-66
2022/06/08 04:54:52;;;;;;;19.53;14.70;;;15.50;99.90;;;;;;5084105;28;20229;-67
2022/06/08 04:57:39;;;;;;;20.00;14.70;;;15.70;99.90;;;;;;5084209;28;20232;-66
2022/06/08 05:00:27;;;;;;;19.07;14.60;;;15.50;99.90;;;;;;5083743;28;20713;-67
2022/06/08 05:03:14;;;;;;;16.93;12.83;;;15.50;99.90;;;;;;5083020;28;20357;-66
2022/06/08 05:06:01;;;;;;;17.70;12.87;;;15.50;99.90;;;;;;5085548;28;20691;-66
2022/06/08 05:08:48;;;;;;;22.43;14.30;;;15.50;99.90;;;;;;5087427;28;20214;-66
2022/06/08 05:11:36;;;;;;;18.57;14.50;;;15.50;99.90;;;;;;5090576;28;20603;-67
2022/06/08 05:14:23;;;;;;;19.20;13.70;;;15.60;99.90;;;;;;5084812;28;20320;-67
2022/06/08 05:17:11;;;;;;;21.20;14.00;;;15.60;99.90;;;;;;5083875;28;20253;-66
2022/06/08 05:19:58;;;;;;;19.07;13.77;;;15.60;99.90;;;;;;5084898;28;20227;-66
2022/06/08 05:22:45;;;;;;;17.77;13.17;;;15.60;99.90;;;;;;5084769;28;20224;-66
2022/06/08 05:25:35;;;;;;;18.20;13.30;;;15.60;99.90;;;;;;5084071;28;20562;-67
2022/06/08 05:28:22;;;;;;;16.53;11.97;;;15.60;99.90;;;;;;5082821;28;20269;-66
2022/06/08 05:31:09;;;;;;;15.87;12.27;;;15.60;99.90;;;;;;5085386;28;20648;-66
2022/06/08 05:33:58;;;;;;;17.40;12.63;;;15.60;99.90;;;;;;5084892;28;20222;-66
2022/06/08 05:36:45;;;;;;;19.00;13.37;;;15.60;99.90;;;;;;5084177;28;20204;-66
2022/06/08 05:39:32;;;;;;;21.17;14.00;;;15.50;99.90;;;;;;5084672;28;20240;-66
2022/06/08 05:42:19;;;;;;;15.17;11.80;;;15.60;99.90;;;;;;5088083;28;20279;-66
2022/06/08 05:45:08;;;;;;;16.97;11.87;;;15.50;99.90;;;;;;5085566;28;20201;-66
2022/06/08 05:47:56;;;;;;;16.50;12.50;;;15.50;99.90;;;;;;5088019;28;20613;-66
2022/06/08 05:50:45;;;;;;;17.43;13.20;;;15.40;99.90;;;;;;5089998;28;20204;-66
2022/06/08 05:53:33;;;;;;;19.63;13.90;;;15.40;99.90;;;;;;5087366;28;20374;-67
2022/06/08 05:56:21;;;;;;;22.53;14.87;;;15.40;99.90;;;;;;5085799;28;20204;-66
2022/06/08 05:59:08;;;;;;;22.77;15.73;;;15.50;99.90;;;;;;5089021;28;20211;-66
2022/06/08 06:01:55;;;;;;;28.93;16.13;;;15.40;99.90;;;;;;5087509;28;20196;-66
2022/06/08 06:04:42;;;;;;;22.67;15.47;;;15.40;99.90;;;;;;5087696;28;20202;-67
2022/06/08 06:07:31;;;;;;;22.37;15.63;;;15.40;99.90;;;;;;5086335;28;20267;-67
2022/06/08 06:10:18;;;;;;;21.00;14.40;;;15.30;99.90;;;;;;5086696;28;20561;-66
2022/06/08 06:13:05;;;;;;;26.83;14.87;;;15.30;99.90;;;;;;5092006;28;20733;-66
2022/06/08 06:15:54;;;;;;;19.63;13.77;;;15.40;99.90;;;;;;5086225;28;20291;-66
2022/06/08 06:18:41;;;;;;;24.27;14.80;;;15.30;99.90;;;;;;5086900;28;20211;-67
2022/06/08 06:21:28;;;;;;;17.80;12.70;;;15.30;99.90;;;;;;5089224;28;20321;-67
2022/06/08 06:24:17;;;;;;;18.83;12.50;;;15.30;99.90;;;;;;5079947;28;20551;-67
2022/06/08 06:27:05;;;;;;;20.97;12.70;;;15.30;99.90;;;;;;5088110;28;20239;-67
2022/06/08 06:29:52;;;;;;;14.43;11.37;;;15.30;99.90;;;;;;5091858;28;20204;-67
2022/06/08 06:32:40;;;;;;;19.03;12.17;;;15.40;99.90;;;;;;5086276;28;20216;-66
2022/06/08 06:35:29;;;;;;;16.13;11.90;;;15.30;99.90;;;;;;5083485;28;20302;-66
2022/06/08 06:38:16;;;;;;;16.40;11.37;;;15.30;99.90;;;;;;5079401;28;20578;-67
2022/06/08 06:41:04;;;;;;;15.73;11.43;;;15.30;99.90;;;;;;5086626;28;20204;-67
2022/06/08 06:43:52;;;;;;;13.93;10.50;;;15.30;99.90;;;;;;5085419;28;20694;-67
2022/06/08 06:46:39;;;;;;;22.23;11.47;;;15.20;99.90;;;;;;5085142;28;20276;-67
2022/06/08 06:49:27;;;;;;;19.57;13.17;;;15.30;99.90;;;;;;5086988;28;20200;-67
2022/06/08 06:52:15;;;;;;;18.37;13.50;;;15.40;99.90;;;;;;5083284;28;20207;-67
2022/06/08 06:55:02;;;;;;;20.83;14.90;;;15.50;99.90;;;;;;5083810;28;20265;-67
2022/06/08 06:57:50;;;;;;;18.33;12.83;;;15.60;99.90;;;;;;5087080;28;20242;-67
2022/06/08 07:00:37;;;;;;;15.50;11.33;;;15.60;99.90;;;;;;5087306;28;20228;-67
2022/06/08 07:03:25;;;;;;;14.00;10.07;;;15.60;99.90;;;;;;5085752;28;20284;-68
2022/06/08 07:06:12;;;;;;;13.07;8.10;;;15.70;99.90;;;;;;5082295;28;20200;-67
2022/06/08 07:09:00;;;;;;;9.47;7.37;;;15.90;99.90;;;;;;5089348;28;20191;-67
2022/06/08 07:11:47;;;;;;;8.90;6.67;;;15.90;99.90;;;;;;5088372;28;20206;-67
2022/06/08 07:14:35;;;;;;;10.83;7.07;;;16.10;99.90;;;;;;5080970;28;20218;-67
2022/06/08 07:17:22;;;;;;;7.77;5.40;;;16.30;99.90;;;;;;5087077;28;20196;-67
2022/06/08 07:20:10;;;;;;;7.07;5.80;;;16.40;99.90;;;;;;5083633;28;20199;-67
2022/06/08 07:22:57;;;;;;;6.60;5.60;;;16.50;99.90;;;;;;5086459;28;20202;-67
2022/06/08 07:25:44;;;;;;;7.33;5.70;;;16.50;99.90;;;;;;5087717;28;20341;-66
2022/06/08 07:28:31;;;;;;;6.43;5.60;;;16.50;99.90;;;;;;5088785;28;20664;-67
2022/06/08 07:31:20;;;;;;;8.83;5.77;;;16.70;99.90;;;;;;5083318;28;20200;-67
2022/06/08 07:34:07;;;;;;;7.50;5.87;;;16.70;99.90;;;;;;5088637;28;20735;-67
2022/06/08 07:36:55;;;;;;;7.17;5.87;;;16.80;99.90;;;;;;5088514;28;20245;-67
2022/06/08 07:39:42;;;;;;;6.30;5.70;;;16.90;99.90;;;;;;5085884;28;20229;-67
2022/06/08 07:42:29;;;;;;;6.90;5.33;;;16.70;99.90;;;;;;5087703;28;20302;-67
2022/06/08 07:45:16;;;;;;;6.40;5.67;;;16.70;99.90;;;;;;5088661;28;20289;-67
2022/06/08 07:51:10;;;;;;;7.00;5.33;;;17.00;99.90;;;;;;5086359;28;20208;-67
2022/06/08 07:53:57;;;;;;;6.80;5.50;;;17.10;99.90;;;;;;5085954;28;20234;-67
2022/06/08 07:56:44;;;;;;;6.00;5.40;;;17.20;99.90;;;;;;5086052;28;20203;-67
2022/06/08 07:59:33;;;;;;;7.93;5.67;;;17.00;99.90;;;;;;5085946;28;20239;-67
2022/06/08 08:02:21;;;;;;;8.37;6.03;;;16.90;99.90;;;;;;5083504;28;20702;-67
2022/06/08 08:05:11;;;;;;;8.53;5.70;;;16.90;99.90;;;;;;5087244;28;20196;-67
2022/06/08 08:07:58;;;;;;;7.07;5.53;;;16.90;99.90;;;;;;5085419;28;20206;-67
2022/06/08 08:10:45;;;;;;;12.67;5.73;;;17.00;99.90;;;;;;5085535;28;20203;-67
2022/06/08 08:13:32;;;;;;;7.03;5.43;;;17.00;99.90;;;;;;5086368;28;20199;-66
2022/06/08 08:16:19;;;;;;;9.80;5.80;;;16.80;99.90;;;;;;5081740;28;20255;-67
2022/06/08 08:19:06;;;;;;;6.33;5.60;;;16.60;99.90;;;;;;5081419;28;20204;-67
2022/06/08 08:21:56;;;;;;;6.70;5.70;;;16.70;99.90;;;;;;5085158;28;20329;-67
2022/06/08 08:24:43;;;;;;;5.27;4.77;;;16.80;99.90;;;;;;5086911;28;20196;-67
2022/06/08 08:27:30;;;;;;;7.17;5.30;;;16.70;99.90;;;;;;5086530;28;20582;-67
2022/06/08 08:30:19;;;;;;;10.27;5.20;;;16.70;99.90;;;;;;5083083;28;20203;-67
2022/06/08 08:33:06;;;;;;;7.27;5.80;;;16.70;99.90;;;;;;5085229;28;20231;-66
2022/06/08 08:35:54;;;;;;;7.23;5.70;;;16.50;99.90;;;;;;5085985;28;20641;-67
2022/06/08 08:38:42;;;;;;;7.23;6.30;;;16.40;99.90;;;;;;5086698;28;20220;-67
2022/06/08 08:44:36;;;;;;;6.90;5.90;;;16.40;99.90;;;;;;5085177;28;20187;-66
2022/06/08 08:47:29;;;;;;;7.00;6.13;;;16.30;99.90;;;;;;5087305;28;20201;-66
2022/06/08 08:50:18;;;;;;;10.27;5.90;;;16.30;99.90;;;;;;5082399;28;20197;-66
2022/06/08 08:53:11;;;;;;;7.83;6.23;;;16.30;99.90;;;;;;5087593;28;20663;-67
2022/06/08 08:56:04;;;;;;;8.90;7.50;;;16.30;99.90;;;;;;5086941;28;20247;-67
2022/06/08 08:58:52;;;;;;;14.07;6.87;;;16.30;99.90;;;;;;5086146;28;20211;-67
2022/06/08 09:01:39;;;;;;;8.90;7.20;;;16.20;99.90;;;;;;5104507;28;20582;-67
2022/06/08 09:04:29;;;;;;;10.17;6.97;;;16.20;99.90;;;;;;5087335;28;20803;-67
2022/06/08 09:07:17;;;;;;;9.47;7.83;;;16.10;99.90;;;;;;5084143;28;20208;-67
2022/06/08 09:10:05;;;;;;;11.40;7.67;;;16.10;99.90;;;;;;5085242;28;20200;-67
2022/06/08 09:12:53;;;;;;;9.80;7.80;;;16.20;99.90;;;;;;5095964;28;20605;-67
2022/06/08 09:15:49;;;;;;;14.17;8.33;;;16.40;99.90;;;;;;5096234;28;20220;-67
2022/06/08 09:18:38;;;;;;;12.13;7.80;;;16.50;99.90;;;;;;5091255;28;21006;-67
2022/06/08 09:21:29;;;;;;;9.83;7.47;;;16.40;99.90;;;;;;5087922;28;20232;-67
2022/06/08 09:24:18;;;;;;;9.43;7.60;;;16.30;99.90;;;;;;5089561;28;20253;-67
2022/06/08 09:27:14;;;;;;;9.03;7.70;;;16.40;99.90;;;;;;5103081;28;20308;-67
2022/06/08 09:30:18;;;;;;;9.17;7.67;;;16.50;99.90;;;;;;5085903;28;20611;-67
2022/06/08 09:33:17;;;;;;;8.70;6.90;;;16.50;99.90;;;;;;5084162;28;20215;-67
2022/06/08 09:36:06;;;;;;;11.30;8.00;;;16.60;99.90;;;;;;5084248;28;20251;-67
2022/06/08 09:38:54;;;;;;;9.50;7.60;;;16.60;99.90;;;;;;5090341;28;20216;-67
2022/06/08 09:41:45;;;;;;;15.27;8.97;;;16.80;99.90;;;;;;5088037;28;20211;-67
2022/06/08 09:44:34;;;;;;;10.73;8.70;;;17.00;99.90;;;;;;5086586;28;20204;-67
2022/06/08 09:53:42;;;;;;;10.83;7.30;;;17.90;99.90;;;;;;5081603;28;20192;-67
2022/06/08 09:56:34;;;;;;;8.13;6.97;;;18.10;99.90;;;;;;5086939;28;20345;-67
2022/06/08 09:59:28;;;;;;;9.47;6.40;;;18.10;99.90;;;;;;5084058;28;20236;-67
2022/06/08 10:02:19;;;;;;;6.57;5.40;;;18.10;99.90;;;;;;5089624;28;20566;-67
2022/06/08 10:05:13;;;;;;;6.33;5.23;;;18.10;99.90;;;;;;5088675;28;20202;-67
2022/06/08 10:08:11;;;;;;;5.70;5.10;;;18.40;99.90;;;;;;5089018;28;20204;-67
2022/06/08 10:11:02;;;;;;;11.07;4.83;;;18.60;99.90;;;;;;5088215;28;20654;-67
2022/06/08 10:13:49;;;;;;;7.00;4.60;;;18.80;99.90;;;;;;5090174;28;20231;-67
2022/06/08 10:16:39;;;;;;;6.70;4.13;;;19.20;99.90;;;;;;5088418;28;20219;-67
2022/06/08 10:19:29;;;;;;;3.93;3.60;;;19.30;99.90;;;;;;5087042;28;20195;-67
2022/06/08 10:22:17;;;;;;;5.27;3.47;;;19.50;99.90;;;;;;5085698;28;20563;-67
2022/06/08 10:25:07;;;;;;;6.93;4.80;;;19.60;99.90;;;;;;5088560;28;20196;-67
2022/06/08 10:27:56;;;;;;;4.00;3.60;;;19.40;99.90;;;;;;5088098;28;20204;-67
2022/06/08 10:30:47;;;;;;;6.90;3.53;;;19.30;99.90;;;;;;5089209;28;20248;-67
2022/06/08 10:33:37;;;;;;;6.80;3.87;;;19.50;99.90;;;;;;5089063;28;20227;-67
2022/06/08 10:36:24;;;;;;;4.07;3.67;;;19.50;99.90;;;;;;5084795;28;20583;-67
2022/06/08 10:39:13;;;;;;;7.33;3.77;;;19.70;99.90;;;;;;5083022;28;20224;-67
2022/06/08 10:45:45;;;;;;;4.10;3.37;;;19.50;99.90;;;;;;5075380;28;20667;-67
2022/06/08 10:48:37;;;;;;;4.07;3.00;;;19.70;99.90;;;;;;5083578;28;20200;-67
2022/06/08 10:51:39;;;;;;;4.30;3.10;;;19.70;99.90;;;;;;5084081;28;20611;-67
2022/06/08 10:57:49;;;;;;;4.33;3.50;;;19.10;99.90;;;;;;5079920;28;20200;-67
2022/06/08 11:01:11;;;;;;;7.13;3.50;;;19.00;99.90;;;;;;5086555;28;20236;-67
2022/06/08 11:03:59;;;;;;;4.23;3.83;;;18.80;99.90;;;;;;5086986;28;20196;-67
2022/06/08 11:07:01;;;;;;;4.77;3.47;;;18.70;99.90;;;;;;5085132;28;20619;-67
2022/06/08 11:10:06;;;;;;;4.23;3.83;;;18.80;99.90;;;;;;5079468;28;20252;-67
2022/06/08 11:12:55;;;;;;;5.73;4.03;;;19.30;99.90;;;;;;5085738;28;20718;-67
2022/06/08 11:15:50;;;;;;;5.93;3.23;;;19.50;99.90;;;;;;5088592;28;20224;-68
2022/06/08 11:18:41;;;;;;;5.40;4.47;;;19.20;99.90;;;;;;5082054;28;20413;-67
2022/06/08 11:21:35;;;;;;;5.27;4.77;;;19.20;99.90;;;;;;5083342;28;20231;-67
2022/06/08 11:24:27;;;;;;;5.20;4.70;;;19.10;99.90;;;;;;5084638;28;20685;-67
2022/06/08 11:27:24;;;;;;;4.87;4.37;;;18.60;99.90;;;;;;5088340;28;20285;-67
2022/06/08 11:30:45;;;;;;;5.00;4.47;;;18.70;99.90;;;;;;5088626;28;20204;-67
2022/06/08 11:33:51;;;;;;;5.40;4.57;;;19.10;99.90;;;;;;5087230;28;20662;-67
2022/06/08 11:37:04;;;;;;;4.93;4.43;;;18.80;99.90;;;;;;5083796;28;20220;-67
2022/06/08 11:39:55;;;;;;;4.67;4.27;;;19.00;99.90;;;;;;5084971;28;20250;-67
2022/06/08 11:42:49;;;;;;;5.00;4.50;;;18.90;99.90;;;;;;5078424;28;20212;-67
2022/06/08 11:45:40;;;;;;;5.47;4.43;;;19.40;99.90;;;;;;5088330;28;20206;-67
2022/06/08 11:48:28;;;;;;;7.77;4.60;;;19.90;99.90;;;;;;5084029;28;20223;-67
2022/06/08 11:51:29;;;;;;;6.40;4.57;;;20.30;99.90;;;;;;5080465;28;20303;-67
2022/06/08 11:54:18;;;;;;;5.90;4.30;;;20.30;99.90;;;;;;5086776;28;20814;-68
2022/06/08 11:57:11;;;;;;;6.83;4.03;;;21.00;99.90;;;;;;5074896;28;20589;-68
2022/06/08 12:00:00;;;;;;;5.53;3.77;;;21.80;99.90;;;;;;5082967;28;20279;-68
2022/06/08 12:02:49;;;;;;;5.37;3.57;;;21.20;99.90;;;;;;5088259;28;20367;-68
2022/06/08 12:05:36;;;;;;;4.23;3.67;;;21.60;99.90;;;;;;5087117;28;20558;-68
2022/06/08 12:08:26;;;;;;;4.33;3.93;;;21.50;99.90;;;;;;5079461;28;20374;-68
2022/06/08 12:11:14;;;;;;;6.33;3.90;;;21.40;99.90;;;;;;5090557;28;20348;-68
2022/06/08 12:14:04;;;;;;;4.77;4.37;;;21.70;99.90;;;;;;5098593;28;20210;-67
2022/06/08 12:16:56;;;;;;;4.07;3.70;;;20.90;99.90;;;;;;5097158;28;20215;-67
2022/06/08 12:19:44;;;;;;;9.33;3.80;;;20.60;99.90;;;;;;5096078;28;20256;-67
2022/06/08 12:22:32;;;;;;;5.63;4.10;;;20.60;99.90;;;;;;5085953;28;20207;-67
2022/06/08 12:25:22;;;;;;;5.53;4.67;;;20.60;99.90;;;;;;5087177;28;20234;-67
2022/06/08 12:28:17;;;;;;;5.10;4.50;;;20.50;99.90;;;;;;5093547;28;20204;-67
2022/06/08 12:31:26;;;;;;;3.80;3.43;;;20.30;99.90;;;;;;5094361;28;20262;-67
2022/06/08 12:34:32;;;;;;;4.10;3.70;;;20.60;99.90;;;;;;5092061;28;20206;-67
2022/06/08 12:37:33;;;;;;;3.67;3.37;;;20.80;99.90;;;;;;5084612;28;20219;-67
2022/06/08 12:40:30;;;;;;;3.63;3.33;;;21.10;99.90;;;;;;5082076;28;20199;-67
2022/06/08 12:43:18;;;;;;;3.73;2.70;;;20.70;99.90;;;;;;5082860;28;20229;-68
2022/06/08 12:46:23;;;;;;;3.23;2.93;;;21.10;99.90;;;;;;5087457;28;20196;-67
2022/06/08 12:49:18;;;;;;;3.10;2.80;;;21.40;99.90;;;;;;5080729;28;20211;-67
2022/06/08 12:52:15;;;;;;;3.87;2.80;;;21.40;99.90;;;;;;5079199;28;20196;-67
2022/06/08 12:55:03;;;;;;;3.57;2.60;;;21.30;99.90;;;;;;5089084;28;20293;-67
2022/06/08 12:57:50;;;;;;;3.27;2.73;;;21.30;99.90;;;;;;5086500;28;20206;-67
2022/06/08 13:00:38;;;;;;;5.03;2.60;;;21.10;99.90;;;;;;5088832;28;20368;-67
2022/06/08 13:03:26;;;;;;;3.37;2.70;;;21.20;99.90;;;;;;5080179;28;20572;-67
2022/06/08 13:06:13;;;;;;;2.90;2.70;;;20.80;99.90;;;;;;5092169;28;20195;-67
2022/06/08 13:09:02;;;;;;;3.10;2.80;;;20.60;99.90;;;;;;5087891;28;20195;-67
2022/06/08 13:11:54;;;;;;;3.50;3.20;;;20.70;99.90;;;;;;5088014;28;20301;-67
2022/06/08 13:14:41;;;;;;;3.60;2.70;;;21.00;99.90;;;;;;5092944;28;20204;-67
2022/06/08 13:17:30;;;;;;;2.80;2.60;;;20.70;99.90;;;;;;5089236;28;21072;-67
2022/06/08 13:20:18;;;;;;;4.30;2.90;;;21.20;99.90;;;;;;5082158;28;20278;-67
2022/06/08 13:23:05;;;;;;;3.33;2.90;;;21.60;99.90;;;;;;5085965;28;20665;-67
2022/06/08 13:25:54;;;;;;;2.93;2.70;;;22.00;99.90;;;;;;5088431;28;20199;-68
2022/06/08 13:28:41;;;;;;;2.60;2.40;;;22.90;99.90;;;;;;5087098;28;20309;-68
2022/06/08 13:31:29;;;;;;;3.00;2.70;;;22.80;99.90;;;;;;5084632;28;20567;-68
2022/06/08 13:34:19;;;;;;;3.63;2.70;;;22.40;99.90;;;;;;5091081;28;20921;-68
2022/06/08 13:37:08;;;;;;;3.50;3.20;;;22.70;99.90;;;;;;5081736;28;20228;-68
2022/06/08 13:39:57;;;;;;;3.17;2.50;;;22.30;99.90;;;;;;5100437;28;20261;-67
2022/06/08 13:42:46;;;;;;;2.83;2.63;;;22.10;99.90;;;;;;5088732;28;20251;-67
2022/06/08 13:45:37;;;;;;;3.40;3.10;;;22.00;99.90;;;;;;5089060;28;20666;-67
2022/06/08 13:48:24;;;;;;;3.30;3.00;;;21.90;99.90;;;;;;5098484;28;20203;-67
2022/06/08 13:51:11;;;;;;;3.03;2.80;;;22.30;99.90;;;;;;5077519;28;20196;-67
2022/06/08 13:53:58;;;;;;;2.77;2.57;;;22.20;99.90;;;;;;5068325;28;20334;-68
2022/06/08 13:56:45;;;;;;;6.60;2.78;;;23.00;99.90;;;;;;5086278;28;20243;-68
2022/06/08 13:59:34;;;;;;;4.10;2.88;;;23.80;99.90;;;;;;5086080;28;20243;-68
2022/06/08 14:02:23;;;;;;;7.50;2.85;;;23.90;99.90;;;;;;5100702;28;20674;-68
2022/06/08 14:05:12;;;;;;;4.05;2.80;;;24.50;99.90;;;;;;5086227;28;20698;-68
2022/06/08 14:14:26;;;;;;;3.22;2.95;;;23.10;99.90;;;;;;5003843;28;20198;-67
2022/06/08 14:17:15;;;;;;;3.08;2.78;;;22.90;99.90;;;;;;5084488;28;20217;-67
2022/06/08 14:20:04;;;;;;;4.95;3.33;;;22.50;99.90;;;;;;5091765;28;20284;-67
2022/06/08 14:22:51;;;;;;;3.50;3.20;;;22.50;99.90;;;;;;5087092;28;20234;-67
2022/06/08 14:25:38;;;;;;;5.68;4.10;;;22.30;99.90;;;;;;5086701;28;20694;-67
2022/06/08 14:28:26;;;;;;;4.97;3.90;;;22.20;99.90;;;;;;5086956;28;20309;-67
2022/06/08 14:31:15;;;;;;;3.92;3.58;;;22.40;99.90;;;;;;5083186;28;20204;-67
2022/06/08 14:34:06;;;;;;;4.97;4.03;;;22.30;99.90;;;;;;5086208;28;20210;-67
2022/06/08 14:36:54;;;;;;;4.47;4.07;;;21.90;99.90;;;;;;5083489;28;20226;-67
2022/06/08 14:39:41;;;;;;;4.93;4.43;;;22.20;99.90;;;;;;5086492;28;20269;-67
2022/06/08 14:42:28;;;;;;;9.33;5.10;;;22.00;99.90;;;;;;5089204;28;20348;-67
2022/06/08 14:45:17;;;;;;;5.27;4.77;;;21.80;99.90;;;;;;5067679;28;20207;-67
2022/06/08 14:48:13;;;;;;;11.47;5.03;;;21.90;99.90;;;;;;5068359;28;20242;-67
2022/06/08 14:51:01;;;;;;;8.13;5.17;;;21.20;99.90;;;;;;5068115;28;20867;-66
2022/06/08 14:53:50;;;;;;;7.80;5.73;;;21.10;99.90;;;;;;5076684;28;20199;-67
2022/06/08 14:56:37;;;;;;;7.10;5.83;;;20.90;99.90;;;;;;5089901;28;20265;-66